Terminal Aerodrome Forecast
Issued by NWS Green Bay, WI

Home | Current Version | Previous Version | Text Only | Print | Product List | Glossary Off
Versions: 1 2 3 4 5 6 7 8 9 10 11 12 13 14

000
FTUS43 KGRB 291132
TAFGRB
TAF
KGRB 291132Z 2912/3012 20009KT P6SM SCT040
      TEMPO 2914/2916 BKN040
     FM291600 25012G18KT P6SM BKN035 BKN060
      TEMPO 2916/2920 -SHRA BKN025
     FM300100 26006KT P6SM SCT040=

USA.gov is the U.S. government's official web portal to all federal, state and local government web resources and services.